Terminal Aerodrome Forecast
Issued by NWS

Home | Current Version | Previous Version | Text Only | Print | Product List | Glossary On
Versions: 1 2 3 4 5 6 7 8 9 10 11 12 13 14 15 16 17 18 19 20 21 22 23 24 25 26 27 28 29 30 31 32 33 34 35 36
000
FTUS44 KHGX 242352 CCA
TAFCXO
TAF COR
KCXO 242352Z 2500/2524 13004KT P6SM FEW050 SCT250
     FM250200 16004KT P6SM SKC
     FM251100 VRB03KT 4SM BR FEW020 SCT025
      TEMPO 2511/2513 1/2SM FG BKN007
     FM251500 07003KT P6SM SCT035
     FM252000 11006KT P6SM VCTS BKN050CB
     FM252300 09005KT P6SM FEW060 SCT250=

USA.gov is the U.S. government's official web portal to all federal, state and local government web resources and services.